Westview, KY (40178)

10:29 PM CDT on April 18, 2015 (GMT -0500)
Eveleigh Road | | Change Station
CLOSE
Current Station
Personal Weather Station
Location: Leitchfield, KY
Elevation: 670 ft
Nearby Weather Stations
Active Advisory: Flood Warning

Elev 670 ft 37.58 °N, 86.34 °W | Updated 9 seconds ago

Partly Cloudy
Partly Cloudy
68.4 °F
Feels Like 68.4 °F
N
1.6
Wind Variable Wind from NE
Gusts 3.8 mph

Today
High -- | Low -- °F
--% Chance of Precip.
Yesterday
High -- | Low -- °F
Precip. -- in
6:06 AM 7:23 PM
New Moon, 0% visible
Pressure 29.90 in
Visibility 10.0 miles
Clouds Scattered Clouds 18000 ft
Dew Point 54 °F
Humidity 60%
Rainfall 0.00 in
Snow Depth Not available.
UV 0 out of 12
Pollen 10.50 out of 12
Air Quality Not available.
Flu Activity Local Activity
METAR KFTK 190258Z AUTO 05003KT 10SM SCT180 19/09 A2990 RMK AO2 SLP123 60000 T01890090 58001

More Conditions Fewer Conditions

Pressure 29.90 in
Visibility 10.0 miles
Clouds Scattered Clouds 18000 ft
Dew Point 54 °F
Humidity 60%
Rainfall 0.00 in
Snow Depth Not available.
UV 0 out of 12
Pollen 10.50 out of 12
Air Quality Not available.
Flu Activity Local Activity
METAR KFTK 190258Z AUTO 05003KT 10SM SCT180 19/09 A2990 RMK AO2 SLP123 60000 T01890090 58001

More Conditions Fewer Conditions

10-Day Weather Forecast

Almanac

Astronomy

Apr. 18, 2015 Rise Set
Actual Time
Civil Twilight
Nautical Twilight
Astronomical Twilight
Moon
Length of Visible Light
Length of Day
Tomorrow will be .
, % of the Moon is Illuminated

Today's Extremes

State Highs State Lows

Community

WunderPhotos

Upload Photos

1,814,693 photos uploaded!

WunderBlogs® & News

Nearby

Air Quality

  Air Quality AQ Index Pollutant
Not available.

Snow Depth

Station Depth Elevation

Earthquake Activity

City Distance Mag. Time & Date
Minimum magnitude displayed is 2.5.

Coastal Water Temperatures

Place Temperature

Stations

Nearby Weather Stations

Station Location Temp. Windchill Dew Point Humidity Wind Precip. Elev Updated Type
                   
Flood Warning
Statement as of 10:06 PM CDT on April 18, 2015

The Flood Warning continues for
the Ohio River at Cannelton lock.
* Until Monday afternoon.
* At 9:00 PM Saturday the stage was 42.3 feet.
* Flood stage is 42.0 feet.
* Minor flooding is occurring and minor flooding is forecast.
* Forecast... the river will remain near 42.3 feet through tonight
and begin a slow fall late tomorrow. The river will fall below
flood stage late Monday morning.
* Impact... at 42.0 feet... agricultural flooding begins near Cloverport
and Cannelton. Highway 66 floods near Derby and Dexter. Rocky Point
girl scout Camp is affected.
* Flood history... this crest compares to a previous crest of 41.6
feet on Feb 28 2003.


Lat... Lon 3822 8636 3796 8659 3794 8670 3783 8675
      3787 8652 3809 8636